sensor_id;sensor_type;location;lat;lon;timestamp;pressure;altitude;pressure_sealevel;temperature;humidity
21102;BME280;10709;49.006;12.100;2023-03-21T00:00:19;48918.44;;;-146.00;81.65
21102;BME280;10709;49.006;12.100;2023-03-21T00:02:47;48896.88;;;-146.00;81.90
21102;BME280;10709;49.006;12.100;2023-03-21T00:05:13;48941.94;;;-146.00;81.63
21102;BME280;10709;49.006;12.100;2023-03-21T00:07:41;48949.78;;;-146.00;82.38
21102;BME280;10709;49.006;12.100;2023-03-21T00:10:09;48961.53;;;-146.00;82.67
21102;BME280;10709;49.006;12.100;2023-03-21T00:12:45;48965.44;;;-146.00;83.93
21102;BME280;10709;49.006;12.100;2023-03-21T00:15:11;48961.53;;;-146.00;84.75
21102;BME280;10709;49.006;12.100;2023-03-21T00:17:38;48990.91;;;-146.00;85.16
21102;BME280;10709;49.006;12.100;2023-03-21T00:20:06;48965.44;;;-146.00;86.45
21102;BME280;10709;49.006;12.100;2023-03-21T00:22:37;48985.03;;;-146.00;86.50
21102;BME280;10709;49.006;12.100;2023-03-21T00:25:04;49010.50;;;-146.00;87.13
21102;BME280;10709;49.006;12.100;2023-03-21T00:27:30;49024.22;;;-146.00;86.63
21102;BME280;10709;49.006;12.100;2023-03-21T00:30:18;49020.31;;;-146.00;86.48
21102;BME280;10709;49.006;12.100;2023-03-21T00:32:46;49006.59;;;-146.00;86.12
21102;BME280;10709;49.006;12.100;2023-03-21T00:35:21;49016.38;;;-146.00;85.97
21102;BME280;10709;49.006;12.100;2023-03-21T00:38:08;48981.13;;;-146.00;85.93
21102;BME280;10709;49.006;12.100;2023-03-21T00:40:34;48983.06;;;-146.00;86.50
21102;BME280;10709;49.006;12.100;2023-03-21T00:43:14;49008.53;;;-146.00;85.95
21102;BME280;10709;49.006;12.100;2023-03-21T00:45:43;49000.72;;;-146.00;85.94
21102;BME280;10709;49.006;12.100;2023-03-21T00:48:10;49008.53;;;-146.00;85.75
21102;BME280;10709;49.006;12.100;2023-03-21T00:50:37;49008.53;;;-146.00;85.72
21102;BME280;10709;49.006;12.100;2023-03-21T00:53:05;48996.78;;;-146.00;85.81
21102;BME280;10709;49.006;12.100;2023-03-21T00:55:32;48996.78;;;-146.00;85.69
21102;BME280;10709;49.006;12.100;2023-03-21T00:57:59;49008.53;;;-146.00;85.30
21102;BME280;10709;49.006;12.100;2023-03-21T01:00:28;48987.00;;;-146.00;85.81
21102;BME280;10709;49.006;12.100;2023-03-21T01:02:55;48985.03;;;-146.00;85.60
21102;BME280;10709;49.006;12.100;2023-03-21T01:05:44;48973.28;;;-146.00;85.46
21102;BME280;10709;49.006;12.100;2023-03-21T01:08:37;48981.13;;;-146.00;85.28
21102;BME280;10709;49.006;12.100;2023-03-21T01:11:19;48971.31;;;-146.00;85.61
21102;BME280;10709;49.006;12.100;2023-03-21T01:13:46;48981.13;;;-146.00;85.29
21102;BME280;10709;49.006;12.100;2023-03-21T01:16:25;48979.16;;;-146.00;85.43
21102;BME280;10709;49.006;12.100;2023-03-21T01:18:52;49004.63;;;-146.00;85.29
21102;BME280;10709;49.006;12.100;2023-03-21T01:21:19;49024.22;;;-146.00;85.31
21102;BME280;10709;49.006;12.100;2023-03-21T01:23:45;49018.34;;;-146.00;85.33
21102;BME280;10709;49.006;12.100;2023-03-21T01:26:13;49006.59;;;-146.00;85.57
21102;BME280;10709;49.006;12.100;2023-03-21T01:28:42;49014.41;;;-146.00;85.53
21102;BME280;10709;49.006;12.100;2023-03-21T01:31:11;48992.88;;;-146.00;85.60
21102;BME280;10709;49.006;12.100;2023-03-21T01:33:38;49000.72;;;-146.00;85.42
21102;BME280;10709;49.006;12.100;2023-03-21T01:36:05;49016.38;;;-146.00;85.93
21102;BME280;10709;49.006;12.100;2023-03-21T01:38:40;49000.72;;;-146.00;86.42
21102;BME280;10709;49.006;12.100;2023-03-21T01:41:06;49020.31;;;-146.00;86.78
21102;BME280;10709;49.006;12.100;2023-03-21T01:43:46;49006.59;;;-146.00;87.04
21102;BME280;10709;49.006;12.100;2023-03-21T01:49:10;49039.88;;;-146.00;87.01
21102;BME280;10709;49.006;12.100;2023-03-21T01:51:50;49012.47;;;-146.00;86.91
21102;BME280;10709;49.006;12.100;2023-03-21T01:54:25;48996.78;;;-146.00;86.89
21102;BME280;10709;49.006;12.100;2023-03-21T01:56:55;49035.97;;;-146.00;87.33
21102;BME280;10709;49.006;12.100;2023-03-21T01:59:48;48996.78;;;-146.00;87.31
21102;BME280;10709;49.006;12.100;2023-03-21T02:02:21;48967.41;;;-146.00;86.89
21102;BME280;10709;49.006;12.100;2023-03-21T02:04:50;49022.25;;;-146.00;86.89
21102;BME280;10709;49.006;12.100;2023-03-21T02:07:26;49063.41;;;-146.00;86.76
21102;BME280;10709;49.006;12.100;2023-03-21T02:09:55;49047.72;;;-146.00;86.81
21102;BME280;10709;49.006;12.100;2023-03-21T02:12:24;49032.06;;;-146.00;86.67
21102;BME280;10709;49.006;12.100;2023-03-21T02:14:52;49026.19;;;-146.00;86.79
21102;BME280;10709;49.006;12.100;2023-03-21T02:17:32;49043.81;;;-146.00;87.20
21102;BME280;10709;49.006;12.100;2023-03-21T02:20:32;49053.59;;;-146.00;87.15
21102;BME280;10709;49.006;12.100;2023-03-21T02:28:55;49004.63;;;-146.00;87.05
21102;BME280;10709;49.006;12.100;2023-03-21T02:47:00;49020.31;;;-146.00;87.16
21102;BME280;10709;49.006;12.100;2023-03-21T02:49:37;49028.13;;;-146.00;87.04
21102;BME280;10709;49.006;12.100;2023-03-21T02:52:11;49012.47;;;-146.00;86.98
21102;BME280;10709;49.006;12.100;2023-03-21T02:54:54;49020.31;;;-146.00;87.03
21102;BME280;10709;49.006;12.100;2023-03-21T02:57:22;48996.78;;;-146.00;87.25
21102;BME280;10709;49.006;12.100;2023-03-21T02:59:54;49012.47;;;-146.00;87.05
21102;BME280;10709;49.006;12.100;2023-03-21T03:02:30;49016.38;;;-146.00;87.00
21102;BME280;10709;49.006;12.100;2023-03-21T03:04:57;49004.63;;;-146.00;86.99
21102;BME280;10709;49.006;12.100;2023-03-21T03:07:35;49047.72;;;-146.00;87.42
21102;BME280;10709;49.006;12.100;2023-03-21T03:10:27;49034.00;;;-146.00;87.18
21102;BME280;10709;49.006;12.100;2023-03-21T03:13:08;49020.31;;;-146.00;87.18
21102;BME280;10709;49.006;12.100;2023-03-21T03:18:53;49032.06;;;-146.00;87.78
21102;BME280;10709;49.006;12.100;2023-03-21T03:24:18;49035.97;;;-146.00;87.87
21102;BME280;10709;49.006;12.100;2023-03-21T03:29:34;48996.78;;;-146.00;88.00
21102;BME280;10709;49.006;12.100;2023-03-21T03:32:09;49008.53;;;-146.00;88.21
21102;BME280;10709;49.006;12.100;2023-03-21T03:34:42;49024.22;;;-146.00;88.19
21102;BME280;10709;49.006;12.100;2023-03-21T03:37:13;49010.50;;;-146.00;87.97
21102;BME280;10709;49.006;12.100;2023-03-21T03:39:48;49016.38;;;-146.00;88.55
21102;BME280;10709;49.006;12.100;2023-03-21T03:42:18;49012.47;;;-146.00;88.48
21102;BME280;10709;49.006;12.100;2023-03-21T03:44:54;49024.22;;;-146.00;88.49
21102;BME280;10709;49.006;12.100;2023-03-21T03:47:39;49024.22;;;-146.00;88.51
21102;BME280;10709;49.006;12.100;2023-03-21T03:50:41;49055.56;;;-146.00;88.25
21102;BME280;10709;49.006;12.100;2023-03-21T03:55:44;48992.88;;;-146.00;88.15
21102;BME280;10709;49.006;12.100;2023-03-21T03:58:11;49016.38;;;-146.00;88.27
21102;BME280;10709;49.006;12.100;2023-03-21T04:00:49;49028.13;;;-146.00;88.34
21102;BME280;10709;49.006;12.100;2023-03-21T04:03:15;49000.72;;;-146.00;88.69
21102;BME280;10709;49.006;12.100;2023-03-21T04:05:42;49020.31;;;-146.00;88.41
21102;BME280;10709;49.006;12.100;2023-03-21T04:08:12;49004.63;;;-146.00;88.49
21102;BME280;10709;49.006;12.100;2023-03-21T04:10:41;49039.88;;;-146.00;88.41
21102;BME280;10709;49.006;12.100;2023-03-21T04:13:08;49002.66;;;-146.00;88.42
21102;BME280;10709;49.006;12.100;2023-03-21T04:15:35;49012.47;;;-146.00;88.36
21102;BME280;10709;49.006;12.100;2023-03-21T04:18:02;49012.47;;;-146.00;88.31
21102;BME280;10709;49.006;12.100;2023-03-21T04:20:29;49016.38;;;-146.00;88.34
21102;BME280;10709;49.006;12.100;2023-03-21T04:23:08;49006.59;;;-146.00;88.34
21102;BME280;10709;49.006;12.100;2023-03-21T04:25:35;49028.13;;;-146.00;88.05
21102;BME280;10709;49.006;12.100;2023-03-21T04:28:12;49028.13;;;-146.00;87.74
21102;BME280;10709;49.006;12.100;2023-03-21T04:30:39;49016.38;;;-146.00;88.77
21102;BME280;10709;49.006;12.100;2023-03-21T04:33:14;49016.38;;;-146.00;89.12
21102;BME280;10709;49.006;12.100;2023-03-21T04:35:41;49012.47;;;-146.00;89.33
21102;BME280;10709;49.006;12.100;2023-03-21T04:38:07;49039.88;;;-146.00;89.49
21102;BME280;10709;49.006;12.100;2023-03-21T04:40:34;49020.31;;;-146.00;89.40
21102;BME280;10709;49.006;12.100;2023-03-21T04:43:01;49055.56;;;-146.00;89.65
21102;BME280;10709;49.006;12.100;2023-03-21T04:45:27;49020.31;;;-146.00;89.49
21102;BME280;10709;49.006;12.100;2023-03-21T04:47:54;49024.22;;;-146.00;89.62
21102;BME280;10709;49.006;12.100;2023-03-21T04:50:21;48988.94;;;-146.00;89.51
21102;BME280;10709;49.006;12.100;2023-03-21T04:52:48;49035.97;;;-146.00;89.25
21102;BME280;10709;49.006;12.100;2023-03-21T04:55:14;49037.94;;;-146.00;89.25
21102;BME280;10709;49.006;12.100;2023-03-21T04:57:41;49035.97;;;-146.00;89.66
21102;BME280;10709;49.006;12.100;2023-03-21T05:00:08;49024.22;;;-146.00;89.16
21102;BME280;10709;49.006;12.100;2023-03-21T05:02:41;48992.88;;;-146.00;89.01
21102;BME280;10709;49.006;12.100;2023-03-21T05:05:07;49028.13;;;-146.00;88.99
21102;BME280;10709;49.006;12.100;2023-03-21T05:07:40;49016.38;;;-146.00;88.71
21102;BME280;10709;49.006;12.100;2023-03-21T05:10:09;49028.13;;;-146.00;88.54
21102;BME280;10709;49.006;12.100;2023-03-21T05:12:37;49059.47;;;-146.00;88.69
21102;BME280;10709;49.006;12.100;2023-03-21T05:15:04;49020.31;;;-146.00;89.67
21102;BME280;10709;49.006;12.100;2023-03-21T05:17:31;48988.94;;;-146.00;90.24
21102;BME280;10709;49.006;12.100;2023-03-21T05:19:57;49034.00;;;-146.00;91.27
21102;BME280;10709;49.006;12.100;2023-03-21T05:22:24;49032.06;;;-146.00;91.33
21102;BME280;10709;49.006;12.100;2023-03-21T05:24:52;48996.78;;;-146.00;91.87
21102;BME280;10709;49.006;12.100;2023-03-21T05:27:21;49020.31;;;-146.00;91.23
21102;BME280;10709;49.006;12.100;2023-03-21T05:30:09;49024.22;;;-146.00;91.22
21102;BME280;10709;49.006;12.100;2023-03-21T05:32:36;49006.59;;;-146.00;91.13
21102;BME280;10709;49.006;12.100;2023-03-21T05:35:02;49014.41;;;-146.00;91.01
21102;BME280;10709;49.006;12.100;2023-03-21T05:37:29;49039.88;;;-146.00;91.05
21102;BME280;10709;49.006;12.100;2023-03-21T05:39:55;49035.97;;;-146.00;90.57
21102;BME280;10709;49.006;12.100;2023-03-21T05:42:22;49016.38;;;-146.00;90.38
21102;BME280;10709;49.006;12.100;2023-03-21T05:44:49;49039.88;;;-146.00;90.32
21102;BME280;10709;49.006;12.100;2023-03-21T05:47:16;49037.94;;;-146.00;89.74
21102;BME280;10709;49.006;12.100;2023-03-21T05:49:44;49026.19;;;-146.00;89.69
21102;BME280;10709;49.006;12.100;2023-03-21T05:52:11;49004.63;;;-146.00;89.38
21102;BME280;10709;49.006;12.100;2023-03-21T05:54:37;49020.31;;;-146.00;89.29
21102;BME280;10709;49.006;12.100;2023-03-21T05:57:04;49032.06;;;-146.00;89.13
21102;BME280;10709;49.006;12.100;2023-03-21T05:59:31;48996.78;;;-146.00;89.01
21102;BME280;10709;49.006;12.100;2023-03-21T06:01:57;49024.22;;;-146.00;88.51
21102;BME280;10709;49.006;12.100;2023-03-21T06:04:24;49008.53;;;-146.00;88.40
21102;BME280;10709;49.006;12.100;2023-03-21T06:06:50;49022.25;;;-146.00;88.91
21102;BME280;10709;49.006;12.100;2023-03-21T06:09:20;49059.47;;;-146.00;89.18
21102;BME280;10709;49.006;12.100;2023-03-21T06:11:49;49028.13;;;-146.00;88.28
21102;BME280;10709;49.006;12.100;2023-03-21T06:14:18;49012.47;;;-146.00;87.82
21102;BME280;10709;49.006;12.100;2023-03-21T06:16:44;49002.66;;;-146.00;88.17
21102;BME280;10709;49.006;12.100;2023-03-21T06:19:11;49000.72;;;-146.00;88.65
21102;BME280;10709;49.006;12.100;2023-03-21T06:21:38;49035.97;;;-146.00;88.74
21102;BME280;10709;49.006;12.100;2023-03-21T06:24:04;49012.47;;;-146.00;88.42
21102;BME280;10709;49.006;12.100;2023-03-21T06:26:31;49047.72;;;-146.00;88.47
21102;BME280;10709;49.006;12.100;2023-03-21T06:28:58;49012.47;;;-146.00;88.36
21102;BME280;10709;49.006;12.100;2023-03-21T06:31:24;49010.50;;;-146.00;88.69
21102;BME280;10709;49.006;12.100;2023-03-21T06:33:52;49018.34;;;-146.00;88.77
21102;BME280;10709;49.006;12.100;2023-03-21T06:36:18;49024.22;;;-146.00;88.67
21102;BME280;10709;49.006;12.100;2023-03-21T06:38:45;49051.66;;;-146.00;88.64
21102;BME280;10709;49.006;12.100;2023-03-21T06:41:12;49037.94;;;-146.00;88.89
21102;BME280;10709;49.006;12.100;2023-03-21T06:43:38;49024.22;;;-146.00;88.48
21102;BME280;10709;49.006;12.100;2023-03-21T06:46:05;49065.34;;;-146.00;88.58
21102;BME280;10709;49.006;12.100;2023-03-21T06:48:32;49020.31;;;-146.00;89.08
21102;BME280;10709;49.006;12.100;2023-03-21T06:50:58;49039.88;;;-146.00;88.72
21102;BME280;10709;49.006;12.100;2023-03-21T06:53:25;49071.25;;;-146.00;88.48
21102;BME280;10709;49.006;12.100;2023-03-21T06:55:55;49014.41;;;-146.00;88.41
21102;BME280;10709;49.006;12.100;2023-03-21T06:58:22;49008.53;;;-146.00;86.54
21102;BME280;10709;49.006;12.100;2023-03-21T07:00:49;49035.97;;;-146.00;86.29
21102;BME280;10709;49.006;12.100;2023-03-21T07:03:15;49051.66;;;-146.00;86.07
21102;BME280;10709;49.006;12.100;2023-03-21T07:05:42;49012.47;;;-146.00;85.99
21102;BME280;10709;49.006;12.100;2023-03-21T07:08:09;48965.44;;;-146.00;85.25
21102;BME280;10709;49.006;12.100;2023-03-21T07:10:39;48996.78;;;-146.00;85.45
21102;BME280;10709;49.006;12.100;2023-03-21T07:13:06;49045.78;;;-146.00;85.52
21102;BME280;10709;49.006;12.100;2023-03-21T07:15:33;49004.63;;;-146.00;85.38
21102;BME280;10709;49.006;12.100;2023-03-21T07:18:04;48992.88;;;-146.00;84.66
21102;BME280;10709;49.006;12.100;2023-03-21T07:20:31;48992.88;;;-146.00;84.16
21102;BME280;10709;49.006;12.100;2023-03-21T07:22:57;49032.06;;;-146.00;84.14
21102;BME280;10709;49.006;12.100;2023-03-21T07:25:24;49010.50;;;-146.00;83.46
21102;BME280;10709;49.006;12.100;2023-03-21T07:27:50;49010.50;;;-146.00;82.50
21102;BME280;10709;49.006;12.100;2023-03-21T07:30:17;48988.94;;;-146.00;82.85
21102;BME280;10709;49.006;12.100;2023-03-21T07:32:44;49012.47;;;-146.00;82.45
21102;BME280;10709;49.006;12.100;2023-03-21T07:35:12;48973.28;;;-146.00;82.45
21102;BME280;10709;49.006;12.100;2023-03-21T07:37:39;49004.63;;;-146.00;82.39
21102;BME280;10709;49.006;12.100;2023-03-21T07:40:07;48969.38;;;-146.00;81.56
21102;BME280;10709;49.006;12.100;2023-03-21T07:42:40;48914.50;;;-146.00;79.13
21102;BME280;10709;49.006;12.100;2023-03-21T07:45:09;48891.00;;;-146.00;79.93
21102;BME280;10709;49.006;12.100;2023-03-21T07:47:36;48939.97;;;-146.00;79.96
21102;BME280;10709;49.006;12.100;2023-03-21T07:50:03;48965.44;;;-146.00;80.18
21102;BME280;10709;49.006;12.100;2023-03-21T07:52:30;48891.00;;;-146.00;78.01
21102;BME280;10709;49.006;12.100;2023-03-21T07:54:56;48896.88;;;-146.00;78.51
21102;BME280;10709;49.006;12.100;2023-03-21T07:57:23;48977.19;;;-146.00;82.45
21102;BME280;10709;49.006;12.100;2023-03-21T07:59:49;48973.28;;;-146.00;83.73
21102;BME280;10709;49.006;12.100;2023-03-21T08:02:16;48985.03;;;-146.00;84.30
21102;BME280;10709;49.006;12.100;2023-03-21T08:04:43;48981.13;;;-146.00;84.04
21102;BME280;10709;49.006;12.100;2023-03-21T08:07:10;48987.00;;;-146.00;84.13
21102;BME280;10709;49.006;12.100;2023-03-21T08:09:37;49024.22;;;-146.00;84.57
21102;BME280;10709;49.006;12.100;2023-03-21T08:12:04;48996.78;;;-146.00;84.89
21102;BME280;10709;49.006;12.100;2023-03-21T08:14:31;48988.94;;;-146.00;84.00
21102;BME280;10709;49.006;12.100;2023-03-21T08:16:58;49008.53;;;-146.00;82.47
21102;BME280;10709;49.006;12.100;2023-03-21T08:19:25;48953.69;;;-146.00;81.80
21102;BME280;10709;49.006;12.100;2023-03-21T08:21:52;48930.19;;;-146.00;81.82
21102;BME280;10709;49.006;12.100;2023-03-21T08:24:19;48916.47;;;-146.00;79.87
21102;BME280;10709;49.006;12.100;2023-03-21T08:26:45;48922.34;;;-146.00;79.17
21102;BME280;10709;49.006;12.100;2023-03-21T08:29:12;48910.59;;;-146.00;79.27
21102;BME280;10709;49.006;12.100;2023-03-21T08:31:39;48894.91;;;-146.00;78.69
21102;BME280;10709;49.006;12.100;2023-03-21T08:34:06;48949.78;;;-146.00;80.51
21102;BME280;10709;49.006;12.100;2023-03-21T08:36:35;48902.75;;;-146.00;78.53
21102;BME280;10709;49.006;12.100;2023-03-21T08:39:03;48928.22;;;-146.00;78.51
21102;BME280;10709;49.006;12.100;2023-03-21T08:41:35;48908.63;;;-146.00;78.24
21102;BME280;10709;49.006;12.100;2023-03-21T08:44:03;48887.09;;;-146.00;77.71
21102;BME280;10709;49.006;12.100;2023-03-21T08:46:31;48849.88;;;-146.00;76.64
21102;BME280;10709;49.006;12.100;2023-03-21T08:48:58;48902.75;;;-146.00;76.87
21102;BME280;10709;49.006;12.100;2023-03-21T08:51:24;48812.63;;;-146.00;72.44
21102;BME280;10709;49.006;12.100;2023-03-21T08:53:51;48808.72;;;-146.00;72.97
21102;BME280;10709;49.006;12.100;2023-03-21T08:56:18;48779.34;;;-146.00;72.18
21102;BME280;10709;49.006;12.100;2023-03-21T08:58:44;48789.13;;;-146.00;73.05
21102;BME280;10709;49.006;12.100;2023-03-21T09:01:10;48824.41;;;-146.00;73.55
21102;BME280;10709;49.006;12.100;2023-03-21T09:03:41;48791.09;;;-146.00;72.04
21102;BME280;10709;49.006;12.100;2023-03-21T09:06:09;48836.16;;;-146.00;72.15
21102;BME280;10709;49.006;12.100;2023-03-21T09:08:37;48832.22;;;-146.00;72.54
21102;BME280;10709;49.006;12.100;2023-03-21T09:11:04;48800.88;;;-146.00;71.32
21102;BME280;10709;49.006;12.100;2023-03-21T09:13:30;48781.31;;;-146.00;69.87
21102;BME280;10709;49.006;12.100;2023-03-21T09:15:58;48789.13;;;-146.00;68.35
21102;BME280;10709;49.006;12.100;2023-03-21T09:18:27;48777.38;;;-146.00;66.75
21102;BME280;10709;49.006;12.100;2023-03-21T09:21:15;48746.03;;;-146.00;65.71
21102;BME280;10709;49.006;12.100;2023-03-21T09:23:43;48755.84;;;-146.00;65.53
21102;BME280;10709;49.006;12.100;2023-03-21T09:26:10;48757.78;;;-146.00;62.37
21102;BME280;10709;49.006;12.100;2023-03-21T09:28:38;48742.13;;;-146.00;62.47
21102;BME280;10709;49.006;12.100;2023-03-21T09:31:06;48746.03;;;-146.00;61.85
21102;BME280;10709;49.006;12.100;2023-03-21T09:33:37;48738.19;;;-146.00;62.33
21102;BME280;10709;49.006;12.100;2023-03-21T09:36:07;48740.16;;;-146.00;62.00
21102;BME280;10709;49.006;12.100;2023-03-21T09:38:45;48732.31;;;-146.00;58.77
21102;BME280;10709;49.006;12.100;2023-03-21T09:47:24;48767.59;;;-146.00;61.52
21102;BME280;10709;49.006;12.100;2023-03-21T09:49:58;48746.03;;;-146.00;59.42
21102;BME280;10709;49.006;12.100;2023-03-21T09:52:50;48722.53;;;-146.00;60.04
21102;BME280;10709;49.006;12.100;2023-03-21T09:55:23;48765.63;;;-146.00;61.43
21102;BME280;10709;49.006;12.100;2023-03-21T09:58:46;48738.19;;;-146.00;61.79
21102;BME280;10709;49.006;12.100;2023-03-21T10:00:49;48746.03;;;-146.00;61.18
21102;BME280;10709;49.006;12.100;2023-03-21T10:03:21;48777.38;;;-146.00;62.03
21102;BME280;10709;49.006;12.100;2023-03-21T10:05:51;48753.88;;;-146.00;60.50
21102;BME280;10709;49.006;12.100;2023-03-21T10:08:23;48742.13;;;-146.00;60.26
21102;BME280;10709;49.006;12.100;2023-03-21T10:10:59;48757.78;;;-146.00;60.71
21102;BME280;10709;49.006;12.100;2023-03-21T10:13:34;48769.53;;;-146.00;60.57
21102;BME280;10709;49.006;12.100;2023-03-21T10:16:11;48761.72;;;-146.00;59.59
21102;BME280;10709;49.006;12.100;2023-03-21T10:18:40;48757.78;;;-146.00;60.30
21102;BME280;10709;49.006;12.100;2023-03-21T10:21:12;48730.38;;;-146.00;59.04
21102;BME280;10709;49.006;12.100;2023-03-21T10:24:01;48757.78;;;-146.00;58.97
21102;BME280;10709;49.006;12.100;2023-03-21T10:26:28;48761.72;;;-146.00;61.17
21102;BME280;10709;49.006;12.100;2023-03-21T10:28:58;48755.84;;;-146.00;60.03
21102;BME280;10709;49.006;12.100;2023-03-21T10:31:27;48765.63;;;-146.00;57.91
21102;BME280;10709;49.006;12.100;2023-03-21T10:33:59;48732.31;;;-146.00;60.13
21102;BME280;10709;49.006;12.100;2023-03-21T10:36:30;48789.13;;;-146.00;59.99
21102;BME280;10709;49.006;12.100;2023-03-21T10:39:02;48765.63;;;-146.00;60.56
21102;BME280;10709;49.006;12.100;2023-03-21T10:41:30;48775.41;;;-146.00;58.87
21102;BME280;10709;49.006;12.100;2023-03-21T10:44:09;48761.72;;;-146.00;59.15
21102;BME280;10709;49.006;12.100;2023-03-21T10:46:37;48769.53;;;-146.00;59.83
21102;BME280;10709;49.006;12.100;2023-03-21T10:49:06;48746.03;;;-146.00;59.10
21102;BME280;10709;49.006;12.100;2023-03-21T10:51:35;48744.06;;;-146.00;58.79
21102;BME280;10709;49.006;12.100;2023-03-21T10:54:06;48757.78;;;-146.00;60.59
21102;BME280;10709;49.006;12.100;2023-03-21T10:56:39;48742.13;;;-146.00;60.01
21102;BME280;10709;49.006;12.100;2023-03-21T10:59:16;48769.53;;;-146.00;59.95
21102;BME280;10709;49.006;12.100;2023-03-21T11:01:49;48769.53;;;-146.00;59.64
21102;BME280;10709;49.006;12.100;2023-03-21T11:04:20;48746.03;;;-146.00;60.44
21102;BME280;10709;49.006;12.100;2023-03-21T11:06:55;48740.16;;;-146.00;59.86
21102;BME280;10709;49.006;12.100;2023-03-21T11:09:25;48734.28;;;-146.00;59.43
21102;BME280;10709;49.006;12.100;2023-03-21T11:11:53;48769.53;;;-146.00;58.50
21102;BME280;10709;49.006;12.100;2023-03-21T11:14:30;48789.13;;;-146.00;56.66
21102;BME280;10709;49.006;12.100;2023-03-21T11:16:58;48755.84;;;-146.00;57.48
21102;BME280;10709;49.006;12.100;2023-03-21T11:19:30;48765.63;;;-146.00;56.54
21102;BME280;10709;49.006;12.100;2023-03-21T11:22:02;48734.28;;;-146.00;57.12
21102;BME280;10709;49.006;12.100;2023-03-21T11:24:31;48746.03;;;-146.00;59.33
21102;BME280;10709;49.006;12.100;2023-03-21T11:26:58;48771.50;;;-146.00;59.79
21102;BME280;10709;49.006;12.100;2023-03-21T11:29:35;48759.75;;;-146.00;59.37
21102;BME280;10709;49.006;12.100;2023-03-21T11:32:19;48777.38;;;-146.00;60.41
21102;BME280;10709;49.006;12.100;2023-03-21T11:35:04;48738.19;;;-146.00;61.36
21102;BME280;10709;49.006;12.100;2023-03-21T11:37:48;48777.38;;;-146.00;60.30
21102;BME280;10709;49.006;12.100;2023-03-21T11:42:51;48769.53;;;-146.00;61.11
21102;BME280;10709;49.006;12.100;2023-03-21T11:47:54;48769.53;;;-146.00;60.71
21102;BME280;10709;49.006;12.100;2023-03-21T11:50:34;48759.75;;;-146.00;60.43
21102;BME280;10709;49.006;12.100;2023-03-21T11:53:19;48783.25;;;-146.00;59.64
21102;BME280;10709;49.006;12.100;2023-03-21T11:58:53;48761.72;;;-146.00;59.77
21102;BME280;10709;49.006;12.100;2023-03-21T12:10:00;48793.06;;;-146.00;61.14
21102;BME280;10709;49.006;12.100;2023-03-21T12:12:46;48746.03;;;-146.00;60.27
21102;BME280;10709;49.006;12.100;2023-03-21T12:20:28;48769.53;;;-146.00;59.84
21102;BME280;10709;49.006;12.100;2023-03-21T12:25:59;48761.72;;;-146.00;59.01
21102;BME280;10709;49.006;12.100;2023-03-21T12:28:39;48746.03;;;-146.00;59.89
21102;BME280;10709;49.006;12.100;2023-03-21T12:33:50;48757.78;;;-146.00;59.10
21102;BME280;10709;49.006;12.100;2023-03-21T12:39:26;48769.53;;;-146.00;58.97
21102;BME280;10709;49.006;12.100;2023-03-21T12:42:13;48753.88;;;-146.00;59.00
21102;BME280;10709;49.006;12.100;2023-03-21T12:44:50;48789.13;;;-146.00;59.16
21102;BME280;10709;49.006;12.100;2023-03-21T12:47:26;48773.47;;;-146.00;58.30
21102;BME280;10709;49.006;12.100;2023-03-21T12:49:58;48773.47;;;-146.00;58.62
21102;BME280;10709;49.006;12.100;2023-03-21T12:52:33;48785.22;;;-146.00;58.99
21102;BME280;10709;49.006;12.100;2023-03-21T12:57:59;48781.31;;;-146.00;59.79
21102;BME280;10709;49.006;12.100;2023-03-21T13:00:43;48744.06;;;-146.00;59.11
21102;BME280;10709;49.006;12.100;2023-03-21T13:03:14;48785.22;;;-146.00;59.88
21102;BME280;10709;49.006;12.100;2023-03-21T13:05:56;48773.47;;;-146.00;58.32
21102;BME280;10709;49.006;12.100;2023-03-21T13:10:56;48765.63;;;-146.00;58.87
21102;BME280;10709;49.006;12.100;2023-03-21T13:16:16;48781.31;;;-146.00;58.47
21102;BME280;10709;49.006;12.100;2023-03-21T13:19:02;48773.47;;;-146.00;59.08
21102;BME280;10709;49.006;12.100;2023-03-21T13:26:36;48773.47;;;-146.00;58.55
21102;BME280;10709;49.006;12.100;2023-03-21T13:32:09;48800.88;;;-146.00;58.28
21102;BME280;10709;49.006;12.100;2023-03-21T13:34:40;48787.19;;;-146.00;57.74
21102;BME280;10709;49.006;12.100;2023-03-21T13:37:17;48775.41;;;-146.00;58.48
21102;BME280;10709;49.006;12.100;2023-03-21T13:39:45;48787.19;;;-146.00;59.32
21102;BME280;10709;49.006;12.100;2023-03-21T13:42:22;48789.13;;;-146.00;58.79
21102;BME280;10709;49.006;12.100;2023-03-21T13:44:56;48793.06;;;-146.00;59.25
21102;BME280;10709;49.006;12.100;2023-03-21T13:47:38;48777.38;;;-146.00;58.76
21102;BME280;10709;49.006;12.100;2023-03-21T13:50:27;48793.06;;;-146.00;57.57
21102;BME280;10709;49.006;12.100;2023-03-21T13:55:35;48800.88;;;-146.00;57.52
21102;BME280;10709;49.006;12.100;2023-03-21T14:06:43;48773.47;;;-146.00;56.82
21102;BME280;10709;49.006;12.100;2023-03-21T14:11:49;48781.31;;;-146.00;57.00
21102;BME280;10709;49.006;12.100;2023-03-21T14:14:24;48765.63;;;-146.00;57.13
21102;BME280;10709;49.006;12.100;2023-03-21T14:16:52;48789.13;;;-146.00;58.08
21102;BME280;10709;49.006;12.100;2023-03-21T14:19:19;48769.53;;;-146.00;57.81
21102;BME280;10709;49.006;12.100;2023-03-21T14:21:48;48785.22;;;-146.00;58.27
21102;BME280;10709;49.006;12.100;2023-03-21T14:24:17;48777.38;;;-146.00;57.59
21102;BME280;10709;49.006;12.100;2023-03-21T14:26:53;48781.31;;;-146.00;57.17
21102;BME280;10709;49.006;12.100;2023-03-21T14:29:24;48773.47;;;-146.00;56.78
21102;BME280;10709;49.006;12.100;2023-03-21T14:31:54;48785.22;;;-146.00;57.53